createdAt,value
2022-09-09T00:02:01.940Z,5.50
2022-09-09T00:04:40.542Z,6.25
2022-09-09T00:07:51.875Z,6.15
2022-09-09T00:10:29.752Z,6.28
2022-09-09T00:13:17.058Z,6.65
2022-09-09T00:16:08.367Z,6.50
2022-09-09T00:18:56.337Z,6.97
2022-09-09T00:22:02.594Z,5.90
2022-09-09T00:24:43.176Z,7.07
2022-09-09T00:27:46.412Z,6.25
2022-09-09T00:30:23.290Z,6.35
2022-09-09T00:32:59.263Z,6.90
2022-09-09T00:35:45.684Z,6.63
2022-09-09T00:38:19.243Z,6.20
2022-09-09T00:41:03.088Z,6.65
2022-09-09T00:43:34.387Z,6.32
2022-09-09T00:46:25.843Z,7.03
2022-09-09T00:49:32.998Z,6.20
2022-09-09T00:52:39.576Z,6.80
2022-09-09T00:55:41.506Z,7.10
2022-09-09T00:58:10.391Z,7.53
2022-09-09T01:00:51.288Z,6.80
2022-09-09T01:03:32.509Z,7.15
2022-09-09T01:06:34.255Z,7.03
2022-09-09T01:09:25.267Z,6.97
2022-09-09T01:12:26.219Z,6.60
2022-09-09T01:15:04.305Z,6.60
2022-09-09T01:17:46.027Z,7.63
2022-09-09T01:20:20.332Z,7.07
2022-09-09T01:23:14.933Z,7.83
2022-09-09T01:26:40.616Z,7.23
2022-09-09T01:29:14.457Z,6.97
2022-09-09T01:32:04.489Z,8.10
2022-09-09T01:34:41.409Z,6.80
2022-09-09T01:37:14.224Z,7.47
2022-09-09T01:39:45.692Z,7.33
2022-09-09T01:42:17.170Z,7.07
2022-09-09T01:44:44.166Z,6.67
2022-09-09T01:47:11.185Z,7.70
2022-09-09T01:49:38.131Z,7.67
2022-09-09T01:52:05.274Z,6.90
2022-09-09T01:54:34.380Z,7.73
2022-09-09T01:57:29.658Z,7.45
2022-09-09T02:00:08.740Z,7.73
2022-09-09T02:02:57.447Z,7.80
2022-09-09T02:05:56.338Z,7.87
2022-09-09T02:08:34.251Z,7.10
2022-09-09T02:11:24.436Z,7.03
2022-09-09T02:13:59.842Z,8.27
2022-09-09T02:16:37.302Z,8.40
2022-09-09T02:19:14.908Z,8.03
2022-09-09T02:21:46.304Z,7.40
2022-09-09T02:24:16.870Z,7.70
2022-09-09T02:26:48.684Z,8.20
2022-09-09T02:29:35.309Z,7.73
2022-09-09T02:32:07.594Z,7.63
2022-09-09T02:34:43.274Z,7.80
2022-09-09T02:37:11.920Z,8.00
2022-09-09T02:39:39.078Z,8.30
2022-09-09T02:42:06.845Z,9.07
2022-09-09T02:44:33.828Z,8.63
2022-09-09T02:47:27.041Z,9.30
2022-09-09T02:50:17.972Z,7.97
2022-09-09T02:53:16.019Z,8.10
2022-09-09T02:55:56.534Z,8.05
2022-09-09T02:58:24.141Z,7.50
2022-09-09T03:00:52.647Z,8.40
2022-09-09T03:03:21.368Z,8.40
2022-09-09T03:05:48.683Z,8.43
2022-09-09T03:08:15.835Z,8.77
2022-09-09T03:10:42.932Z,8.43
2022-09-09T03:13:10.189Z,8.10
2022-09-09T03:15:37.179Z,8.77
2022-09-09T03:18:04.216Z,9.13
2022-09-09T03:20:32.076Z,8.30
2022-09-09T03:23:01.268Z,8.87
2022-09-09T03:25:29.657Z,9.00
2022-09-09T03:27:57.384Z,8.33
2022-09-09T03:30:28.974Z,8.50
2022-09-09T03:32:56.390Z,9.90
2022-09-09T03:35:23.589Z,7.63
2022-09-09T03:37:50.655Z,8.77
2022-09-09T03:40:17.709Z,8.50
2022-09-09T03:42:44.726Z,8.43
2022-09-09T03:45:12.228Z,7.80
2022-09-09T03:47:39.397Z,7.77
2022-09-09T03:50:10.589Z,7.97
2022-09-09T03:52:42.067Z,7.87
2022-09-09T03:55:10.130Z,7.67
2022-09-09T03:57:38.214Z,7.60
2022-09-09T04:00:07.890Z,8.03
2022-09-09T04:02:35.100Z,7.33
2022-09-09T04:05:02.130Z,7.40
2022-09-09T04:07:29.203Z,7.17
2022-09-09T04:09:56.386Z,7.57
2022-09-09T04:12:23.483Z,6.67
2022-09-09T04:14:50.429Z,7.57
2022-09-09T04:17:18.397Z,6.70
2022-09-09T04:19:45.365Z,6.53
2022-09-09T04:22:12.331Z,6.13
2022-09-09T04:24:39.381Z,6.67
2022-09-09T04:27:06.334Z,7.40
2022-09-09T04:29:33.353Z,5.90
2022-09-09T04:32:00.333Z,5.85
2022-09-09T04:34:27.391Z,6.57
2022-09-09T04:36:54.320Z,6.03
2022-09-09T04:39:21.238Z,5.88
2022-09-09T04:41:48.298Z,5.70
2022-09-09T04:44:15.428Z,6.07
2022-09-09T04:46:42.550Z,5.70
2022-09-09T04:49:14.455Z,5.22
2022-09-09T04:51:42.108Z,5.82
2022-09-09T04:54:09.029Z,4.97
2022-09-09T04:56:37.335Z,6.03
2022-09-09T04:59:04.352Z,5.47
2022-09-09T05:01:31.480Z,5.10
2022-09-09T05:03:58.837Z,5.18
2022-09-09T05:06:26.001Z,5.10
2022-09-09T05:08:53.468Z,5.55
2022-09-09T05:11:27.938Z,5.33
2022-09-09T05:13:55.676Z,5.37
2022-09-09T05:16:24.437Z,5.13
2022-09-09T05:18:52.308Z,4.93
2022-09-09T05:21:22.375Z,5.07
2022-09-09T05:23:49.818Z,5.07
2022-09-09T05:26:20.485Z,5.38
2022-09-09T05:28:48.021Z,5.80
2022-09-09T05:31:17.996Z,4.90
2022-09-09T05:33:47.440Z,4.80
2022-09-09T05:36:20.821Z,4.88
2022-09-09T05:38:48.600Z,4.90
2022-09-09T05:41:18.639Z,5.10
2022-09-09T05:43:46.635Z,5.20
2022-09-09T05:46:18.871Z,5.07
2022-09-09T05:48:48.383Z,4.55
2022-09-09T05:51:22.812Z,4.63
2022-09-09T05:53:50.096Z,5.07
2022-09-09T05:56:19.326Z,3.85
2022-09-09T05:58:50.233Z,4.13
2022-09-09T06:01:24.942Z,4.57
2022-09-09T06:03:53.270Z,4.55
2022-09-09T06:06:29.702Z,4.38
2022-09-09T06:08:59.147Z,4.32
2022-09-09T06:11:33.644Z,4.22
2022-09-09T06:14:01.304Z,4.35
2022-09-09T06:16:30.483Z,4.90
2022-09-09T06:18:58.902Z,4.82
2022-09-09T06:21:35.527Z,4.18
2022-09-09T06:24:03.394Z,4.53
2022-09-09T06:26:43.654Z,4.75
2022-09-09T06:29:11.305Z,4.32
2022-09-09T06:31:39.655Z,4.63
2022-09-09T06:34:09.321Z,4.75
2022-09-09T06:36:39.324Z,4.85
2022-09-09T06:39:12.145Z,4.60
2022-09-09T06:41:42.061Z,4.22
2022-09-09T06:44:09.168Z,4.93
2022-09-09T06:46:36.793Z,4.88
2022-09-09T06:49:04.230Z,4.82
2022-09-09T06:51:37.661Z,5.03
2022-09-09T06:54:05.407Z,5.30
2022-09-09T06:56:38.111Z,4.80
2022-09-09T06:59:07.095Z,5.35
2022-09-09T07:01:37.199Z,4.93
2022-09-09T07:04:08.532Z,5.18
2022-09-09T07:06:47.309Z,5.63
2022-09-09T07:09:17.294Z,5.28
2022-09-09T07:11:50.315Z,5.40
2022-09-09T07:14:17.900Z,5.22
2022-09-09T07:16:46.511Z,5.38
2022-09-09T07:19:15.457Z,5.43
2022-09-09T07:21:43.283Z,5.03
2022-09-09T07:24:11.717Z,5.55
2022-09-09T07:26:40.705Z,5.90
2022-09-09T07:29:09.105Z,6.28
2022-09-09T07:31:38.945Z,5.95
2022-09-09T07:34:06.585Z,6.38
2022-09-09T07:36:40.154Z,5.70
2022-09-09T07:39:14.143Z,5.82
2022-09-09T07:41:47.646Z,6.35
2022-09-09T07:44:25.960Z,5.82
2022-09-09T07:46:53.108Z,6.90
2022-09-09T07:49:27.411Z,7.32
2022-09-09T07:51:56.774Z,7.50
2022-09-09T07:54:24.710Z,7.40
2022-09-09T07:56:53.108Z,7.07
2022-09-09T07:59:20.812Z,7.43
2022-09-09T08:01:54.531Z,6.80
2022-09-09T08:04:23.420Z,8.18
2022-09-09T08:07:02.145Z,7.32
2022-09-09T08:09:30.107Z,6.95
2022-09-09T08:11:58.212Z,8.10
2022-09-09T08:14:25.961Z,8.25
2022-09-09T08:16:55.276Z,7.97
2022-09-09T08:19:22.346Z,8.07
2022-09-09T08:21:50.137Z,8.50
2022-09-09T08:24:17.913Z,8.30
2022-09-09T08:26:50.347Z,8.65
2022-09-09T08:29:21.182Z,8.43
2022-09-09T08:31:52.279Z,8.45
2022-09-09T08:34:22.193Z,9.35
2022-09-09T08:36:51.463Z,8.70
2022-09-09T08:39:21.514Z,8.75
2022-09-09T08:42:01.665Z,9.55
2022-09-09T08:45:13.089Z,9.20
2022-09-09T08:48:01.054Z,10.52
2022-09-09T08:50:36.511Z,9.73
2022-09-09T08:53:34.908Z,9.18
2022-09-09T08:56:12.654Z,10.05
2022-09-09T08:58:49.988Z,9.68
2022-09-09T09:01:32.770Z,9.75
2022-09-09T09:04:45.175Z,10.95
2022-09-09T09:07:38.231Z,10.85
2022-09-09T09:10:42.029Z,10.73
2022-09-09T09:13:44.070Z,10.15
2022-09-09T09:16:44.762Z,11.48
2022-09-09T09:19:17.384Z,10.90
2022-09-09T09:21:51.547Z,11.30
2022-09-09T09:24:26.998Z,9.75
2022-09-09T09:26:54.998Z,11.30
2022-09-09T09:29:25.306Z,11.80
2022-09-09T09:31:56.563Z,12.45
2022-09-09T09:34:25.390Z,11.18
2022-09-09T09:36:58.201Z,11.85
2022-09-09T09:42:21.796Z,12.85
2022-09-09T09:44:50.700Z,12.55
2022-09-09T09:47:28.024Z,12.50
2022-09-09T09:50:03.579Z,12.40
2022-09-09T09:52:33.258Z,13.05
2022-09-09T09:55:07.542Z,12.88
2022-09-09T09:57:35.541Z,11.77
2022-09-09T10:00:17.720Z,13.13
2022-09-09T10:02:46.964Z,12.98
2022-09-09T10:05:26.831Z,12.30
2022-09-09T10:08:17.656Z,12.90
2022-09-09T10:11:34.094Z,13.85
2022-09-09T10:14:34.236Z,12.07
2022-09-09T10:17:14.330Z,12.95
2022-09-09T10:20:00.017Z,13.93
2022-09-09T10:22:33.094Z,13.98
2022-09-09T10:26:14.706Z,14.23
2022-09-09T10:29:33.948Z,13.57
2022-09-09T10:32:46.292Z,14.05
2022-09-09T10:35:34.328Z,13.25
2022-09-09T10:38:29.793Z,14.38
2022-09-09T10:40:57.632Z,14.68
2022-09-09T10:44:00.601Z,15.50
2022-09-09T10:46:56.962Z,15.20
2022-09-09T10:50:01.692Z,15.52
2022-09-09T10:52:52.049Z,15.05
2022-09-09T10:55:29.902Z,15.40
2022-09-09T10:58:00.095Z,16.27
2022-09-09T11:00:44.932Z,15.48
2022-09-09T11:03:27.972Z,15.73
2022-09-09T11:06:14.466Z,17.25
2022-09-09T11:08:42.009Z,17.10
2022-09-09T11:11:30.332Z,15.60
2022-09-09T11:14:20.927Z,15.68
2022-09-09T11:16:58.072Z,16.33
2022-09-09T11:19:42.467Z,16.08
2022-09-09T11:22:37.623Z,16.02
2022-09-09T11:26:04.675Z,16.95
2022-09-09T11:28:59.519Z,15.85
2022-09-09T11:31:49.547Z,18.40
2022-09-09T11:34:52.955Z,19.23
2022-09-09T11:37:47.014Z,18.95
2022-09-09T11:40:28.974Z,18.65
2022-09-09T11:43:28.069Z,20.13
2022-09-09T11:46:01.181Z,20.85
2022-09-09T11:48:39.397Z,19.67
2022-09-09T11:51:17.125Z,19.90
2022-09-09T11:54:02.400Z,19.63
2022-09-09T11:56:45.089Z,20.30
2022-09-09T11:59:33.166Z,21.63
2022-09-09T12:02:19.805Z,20.40
2022-09-09T12:05:11.043Z,19.88
2022-09-09T12:07:59.732Z,19.63
2022-09-09T12:10:30.063Z,20.90
2022-09-09T12:13:08.259Z,21.58
2022-09-09T12:15:35.773Z,21.35
2022-09-09T12:18:03.833Z,21.60
2022-09-09T12:20:39.989Z,22.95
2022-09-09T12:23:15.209Z,22.58
2022-09-09T12:26:16.728Z,23.30
2022-09-09T12:29:19.815Z,22.23
2022-09-09T12:32:12.490Z,21.50
2022-09-09T12:35:21.267Z,21.58
2022-09-09T12:38:01.165Z,21.90
2022-09-09T12:40:36.515Z,21.52
2022-09-09T12:43:22.198Z,23.63
2022-09-09T12:45:57.681Z,23.45
2022-09-09T12:48:54.939Z,23.95
2022-09-09T12:51:32.089Z,23.48
2022-09-09T12:54:00.910Z,23.30
2022-09-09T12:56:32.478Z,22.85
2022-09-09T12:59:01.904Z,24.42
2022-09-09T13:01:33.616Z,24.33
2022-09-09T13:04:01.547Z,24.58
2022-09-09T13:06:34.245Z,23.98
2022-09-09T13:09:03.263Z,23.40
2022-09-09T13:11:59.751Z,23.67
2022-09-09T13:14:38.378Z,24.38
2022-09-09T13:17:07.830Z,23.25
2022-09-09T13:19:38.902Z,25.25
2022-09-09T13:22:28.557Z,25.80
2022-09-09T13:25:29.781Z,25.63
2022-09-09T13:28:03.503Z,26.45
2022-09-09T13:30:41.374Z,23.58
2022-09-09T13:33:13.974Z,25.35
2022-09-09T13:36:00.153Z,26.48
2022-09-09T13:38:30.097Z,24.85
2022-09-09T13:41:04.283Z,26.42
2022-09-09T13:43:46.388Z,26.52
2022-09-09T13:46:31.217Z,23.98
2022-09-09T13:49:00.807Z,24.55
2022-09-09T13:51:46.477Z,24.95
2022-09-09T13:54:17.123Z,24.98
2022-09-09T13:56:45.287Z,25.17
2022-09-09T13:59:30.734Z,22.95
2022-09-09T14:02:09.685Z,24.48
2022-09-09T14:04:36.688Z,25.60
2022-09-09T14:07:04.379Z,25.70
2022-09-09T14:09:31.301Z,25.17
2022-09-09T14:11:58.708Z,23.45
2022-09-09T14:14:26.803Z,23.63
2022-09-09T14:16:53.719Z,24.73
2022-09-09T14:19:21.002Z,25.08
2022-09-09T14:21:48.048Z,25.45
2022-09-09T14:24:15.151Z,26.13
2022-09-09T14:26:42.080Z,23.67
2022-09-09T14:29:09.048Z,24.98
2022-09-09T14:31:36.013Z,23.55
2022-09-09T14:34:02.978Z,24.02
2022-09-09T14:36:30.175Z,22.80
2022-09-09T14:38:57.163Z,22.77
2022-09-09T14:41:24.551Z,23.42
2022-09-09T14:43:52.949Z,21.95
2022-09-09T14:46:21.843Z,22.30
2022-09-09T14:51:26.006Z,22.48
2022-09-09T14:53:55.891Z,22.05
2022-09-09T14:56:30.610Z,21.65
2022-09-09T14:59:01.850Z,23.45
2022-09-09T15:01:30.757Z,24.00
2022-09-09T15:04:04.611Z,22.35
2022-09-09T15:06:36.841Z,22.95
2022-09-09T15:09:04.455Z,22.42
2022-09-09T15:11:38.764Z,22.83
2022-09-09T15:14:08.452Z,21.95
2022-09-09T15:16:36.416Z,21.58
2022-09-09T15:19:04.156Z,22.65
2022-09-09T15:21:36.930Z,20.20
2022-09-09T15:24:05.412Z,20.20
2022-09-09T15:26:32.862Z,21.80
2022-09-09T15:29:00.464Z,21.77
2022-09-09T15:31:32.851Z,23.48
2022-09-09T15:34:02.815Z,22.92
2022-09-09T15:36:33.401Z,22.13
2022-09-09T15:39:02.247Z,21.55
2022-09-09T15:41:30.406Z,21.98
2022-09-09T15:43:58.709Z,23.55
2022-09-09T15:46:28.097Z,23.05
2022-09-09T15:48:58.660Z,22.42
2022-09-09T15:51:44.018Z,21.83
2022-09-09T15:54:20.878Z,22.92
2022-09-09T15:56:55.818Z,22.60
2022-09-09T15:59:24.530Z,22.40
2022-09-09T16:01:54.508Z,22.08
2022-09-09T16:04:26.428Z,23.70
2022-09-09T16:07:05.605Z,24.10
2022-09-09T16:09:33.851Z,23.35
2022-09-09T16:12:03.440Z,25.25
2022-09-09T16:14:35.165Z,24.77
2022-09-09T16:17:03.017Z,24.27
2022-09-09T16:19:32.179Z,23.88
2022-09-09T16:21:59.390Z,22.25
2022-09-09T16:24:26.740Z,24.45
2022-09-09T16:26:55.926Z,23.05
2022-09-09T16:29:23.999Z,24.27
2022-09-09T16:31:51.663Z,23.33
2022-09-09T16:34:19.798Z,23.75
2022-09-09T16:36:49.452Z,23.45
2022-09-09T16:39:19.625Z,22.67
2022-09-09T16:41:49.317Z,23.13
2022-09-09T16:44:19.797Z,23.17
2022-09-09T16:46:49.779Z,21.80
2022-09-09T16:49:17.477Z,22.10
2022-09-09T16:51:54.116Z,21.70
2022-09-09T16:54:24.434Z,21.40
2022-09-09T16:56:52.115Z,23.50
2022-09-09T16:59:22.253Z,21.20
2022-09-09T17:01:52.654Z,22.75
2022-09-09T17:04:27.334Z,21.15
2022-09-09T17:06:56.936Z,20.13
2022-09-09T17:09:28.485Z,20.10
2022-09-09T17:11:55.826Z,21.15
2022-09-09T17:14:24.817Z,20.30
2022-09-09T17:16:52.084Z,21.45
2022-09-09T17:19:19.237Z,19.20
2022-09-09T17:22:15.661Z,20.35
2022-09-09T17:24:35.566Z,18.83
2022-09-09T17:27:03.383Z,19.35
2022-09-09T17:29:30.452Z,17.85
2022-09-09T17:31:57.539Z,19.10
2022-09-09T17:34:26.163Z,19.17
2022-09-09T17:36:53.273Z,19.98
2022-09-09T17:39:20.344Z,18.25
2022-09-09T17:41:47.339Z,17.45
2022-09-09T17:44:14.389Z,17.45
2022-09-09T17:46:43.979Z,18.35
2022-09-09T17:49:13.996Z,18.55
2022-09-09T17:51:42.882Z,19.35
2022-09-09T17:54:15.250Z,18.80
2022-09-09T17:56:43.146Z,18.55
2022-09-09T17:59:13.412Z,18.27
2022-09-09T18:01:45.724Z,17.63
2022-09-09T18:04:15.424Z,18.02
2022-09-09T18:06:51.665Z,19.25
2022-09-09T18:09:26.468Z,18.63
2022-09-09T18:11:57.027Z,17.25
2022-09-09T18:14:28.320Z,18.13
2022-09-09T18:16:55.626Z,18.15
2022-09-09T18:19:26.728Z,19.15
2022-09-09T18:21:56.398Z,17.73
2022-09-09T18:24:26.762Z,18.70
2022-09-09T18:26:53.843Z,18.35
2022-09-09T18:29:24.051Z,18.58
2022-09-09T18:31:53.329Z,18.85
2022-09-09T18:34:22.860Z,20.15
2022-09-09T18:36:56.151Z,17.33
2022-09-09T18:39:29.763Z,18.77
2022-09-09T18:42:01.461Z,18.25
2022-09-09T18:44:35.568Z,18.10
2022-09-09T18:47:03.846Z,19.55
2022-09-09T18:49:30.902Z,19.23
2022-09-09T18:51:58.022Z,18.33
2022-09-09T18:54:30.540Z,19.10
2022-09-09T18:57:00.572Z,17.60
2022-09-09T18:59:28.388Z,18.08
2022-09-09T19:01:55.776Z,18.63
2022-09-09T19:04:24.453Z,17.65
2022-09-09T19:06:57.851Z,18.92
2022-09-09T19:09:31.578Z,18.88
2022-09-09T19:12:00.620Z,16.08
2022-09-09T19:14:28.577Z,17.27
2022-09-09T19:16:56.468Z,16.65
2022-09-09T19:19:31.259Z,17.58
2022-09-09T19:21:58.869Z,16.33
2022-09-09T19:24:32.442Z,17.40
2022-09-09T19:27:04.417Z,16.55
2022-09-09T19:29:36.439Z,16.67
2022-09-09T19:32:49.707Z,16.02
2022-09-09T19:34:52.493Z,16.40
2022-09-09T19:37:19.837Z,16.15
2022-09-09T19:39:47.992Z,16.00
2022-09-09T19:42:15.677Z,15.57
2022-09-09T19:44:42.705Z,15.88
2022-09-09T19:47:09.670Z,17.17
2022-09-09T19:49:38.594Z,16.67
2022-09-09T19:52:05.769Z,18.60
2022-09-09T19:54:33.501Z,17.42
2022-09-09T19:57:01.303Z,16.13
2022-09-09T19:59:28.514Z,15.57
2022-09-09T20:01:56.979Z,14.90
2022-09-09T20:04:24.659Z,13.25
2022-09-09T20:06:53.216Z,13.23
2022-09-09T20:09:21.957Z,13.27
2022-09-09T20:11:50.528Z,13.05
2022-09-09T20:14:18.430Z,12.23
2022-09-09T20:16:46.712Z,11.38
2022-09-09T20:19:18.642Z,12.00
2022-09-09T20:21:52.111Z,12.27
2022-09-09T20:24:24.029Z,11.75
2022-09-09T20:26:51.157Z,12.32
2022-09-09T20:29:20.698Z,10.90
2022-09-09T20:31:49.187Z,12.77
2022-09-09T20:34:22.935Z,11.30
2022-09-09T20:36:51.081Z,12.68
2022-09-09T20:39:20.705Z,12.10
2022-09-09T20:41:48.696Z,11.00
2022-09-09T20:44:19.253Z,11.90
2022-09-09T20:46:49.971Z,11.93
2022-09-09T20:49:23.072Z,12.50
2022-09-09T20:51:51.492Z,12.38
2022-09-09T20:54:25.115Z,11.95
2022-09-09T20:56:55.264Z,12.13
2022-09-09T20:59:28.547Z,12.25
2022-09-09T21:01:57.121Z,11.55
2022-09-09T21:04:25.185Z,12.05
2022-09-09T21:06:52.740Z,11.13
2022-09-09T21:09:23.260Z,12.63
2022-09-09T21:11:51.507Z,13.35
2022-09-09T21:14:18.640Z,20.02
2022-09-09T21:16:45.851Z,17.98
2022-09-09T21:19:12.799Z,14.57
2022-09-09T21:21:40.155Z,12.82
2022-09-09T21:24:07.299Z,12.82
2022-09-09T21:26:35.537Z,13.80
2022-09-09T21:29:02.539Z,11.95
2022-09-09T21:31:29.903Z,12.40
2022-09-09T21:33:58.726Z,13.00
2022-09-09T21:36:28.102Z,12.57
2022-09-09T21:38:55.438Z,13.75
2022-09-09T21:41:22.481Z,13.75
2022-09-09T21:43:54.220Z,14.57
2022-09-09T21:46:23.289Z,15.00
2022-09-09T21:48:50.776Z,15.07
2022-09-09T21:51:18.657Z,14.38
2022-09-09T21:53:46.195Z,14.55
2022-09-09T21:56:17.913Z,13.25
2022-09-09T21:58:46.892Z,14.45
2022-09-09T22:01:18.547Z,14.48
2022-09-09T22:03:46.210Z,14.13
2022-09-09T22:06:16.780Z,13.85
2022-09-09T22:08:46.098Z,13.85
2022-09-09T22:11:20.642Z,13.93
2022-09-09T22:13:48.365Z,13.63
2022-09-09T22:16:19.074Z,14.07
2022-09-09T22:18:56.736Z,13.23
2022-09-09T22:21:25.201Z,13.95
2022-09-09T22:23:55.491Z,12.68
2022-09-09T22:26:24.562Z,13.20
2022-09-09T22:28:53.796Z,14.52
2022-09-09T22:31:22.842Z,12.65
2022-09-09T22:33:51.131Z,13.43
2022-09-09T22:36:20.421Z,13.15
2022-09-09T22:38:49.156Z,12.57
2022-09-09T22:41:17.169Z,12.75
2022-09-09T22:43:44.951Z,12.18
2022-09-09T22:46:12.313Z,10.38
2022-09-09T22:48:40.504Z,11.18
2022-09-09T22:51:14.183Z,9.82
2022-09-09T22:53:43.469Z,10.93
2022-09-09T22:56:17.321Z,10.82
2022-09-09T22:58:44.530Z,11.73
2022-09-09T23:01:15.971Z,10.02
2022-09-09T23:03:46.101Z,10.85
2022-09-09T23:06:20.228Z,11.10
2022-09-09T23:08:51.908Z,10.63
2022-09-09T23:11:19.568Z,9.15
2022-09-09T23:13:56.018Z,10.15
2022-09-09T23:16:33.079Z,9.50
2022-09-09T23:19:01.028Z,9.38
2022-09-09T23:21:30.403Z,8.55
2022-09-09T23:23:59.804Z,8.98
2022-09-09T23:26:29.868Z,9.02
2022-09-09T23:28:59.348Z,9.02
2022-09-09T23:31:30.203Z,8.32
2022-09-09T23:33:58.577Z,8.63
2022-09-09T23:36:26.563Z,8.85
2022-09-09T23:38:56.285Z,10.57
2022-09-09T23:41:23.609Z,10.50
2022-09-09T23:43:53.387Z,10.13
2022-09-09T23:46:28.608Z,10.60
2022-09-09T23:48:57.890Z,9.68
2022-09-09T23:51:28.885Z,10.80
2022-09-09T23:53:58.509Z,10.90
2022-09-09T23:56:29.852Z,10.25
2022-09-09T23:58:56.840Z,10.57
